createdAt,value
2022-12-03T00:00:12.406Z,13.50
2022-12-03T00:03:00.916Z,12.98
2022-12-03T00:05:28.343Z,12.82
2022-12-03T00:07:56.082Z,13.88
2022-12-03T00:10:23.372Z,12.93
2022-12-03T00:12:51.029Z,12.48
2022-12-03T00:15:18.493Z,12.65
2022-12-03T00:17:46.310Z,14.32
2022-12-03T00:20:19.878Z,13.90
2022-12-03T00:22:47.482Z,13.65
2022-12-03T00:25:14.822Z,12.70
2022-12-03T00:27:42.577Z,13.30
2022-12-03T00:30:10.904Z,14.52
2022-12-03T00:32:38.484Z,12.98
2022-12-03T00:35:06.061Z,12.90
2022-12-03T00:37:35.185Z,14.88
2022-12-03T00:40:04.886Z,13.50
2022-12-03T00:42:32.599Z,12.93
2022-12-03T00:45:00.099Z,13.15
2022-12-03T00:47:27.702Z,13.35
2022-12-03T00:49:55.020Z,13.95
2022-12-03T00:52:22.591Z,13.75
2022-12-03T00:54:50.032Z,14.43
2022-12-03T00:57:17.811Z,13.82
2022-12-03T00:59:45.409Z,13.20
2022-12-03T01:02:13.300Z,13.43
2022-12-03T01:04:41.626Z,12.80
2022-12-03T01:07:09.269Z,13.70
2022-12-03T01:09:36.513Z,13.75
2022-12-03T01:12:04.811Z,13.38
2022-12-03T01:14:32.888Z,13.27
2022-12-03T01:17:00.424Z,14.02
2022-12-03T01:19:27.968Z,13.25
2022-12-03T01:21:55.585Z,14.18
2022-12-03T01:24:22.980Z,13.82
2022-12-03T01:26:50.534Z,12.95
2022-12-03T01:29:17.893Z,13.75
2022-12-03T01:32:03.858Z,13.73
2022-12-03T01:34:31.165Z,12.88
2022-12-03T01:36:58.714Z,12.88
2022-12-03T01:39:26.194Z,13.30
2022-12-03T01:41:55.008Z,13.05
2022-12-03T01:44:28.199Z,12.75
2022-12-03T01:46:58.312Z,13.88
2022-12-03T01:49:30.115Z,13.65
2022-12-03T01:51:58.857Z,12.63
2022-12-03T01:54:30.248Z,13.57
2022-12-03T01:56:58.236Z,12.88
2022-12-03T01:59:35.725Z,12.93
2022-12-03T02:02:14.869Z,13.55
2022-12-03T02:04:42.346Z,13.32
2022-12-03T02:07:18.240Z,13.27
2022-12-03T02:09:45.810Z,12.80
2022-12-03T02:12:17.593Z,12.60
2022-12-03T02:14:45.338Z,12.25
2022-12-03T02:17:13.381Z,12.13
2022-12-03T02:19:40.896Z,12.07
2022-12-03T02:22:32.740Z,12.88
2022-12-03T02:25:09.402Z,13.07
2022-12-03T02:27:37.912Z,12.10
2022-12-03T02:30:07.078Z,12.30
2022-12-03T02:32:34.685Z,12.70
2022-12-03T02:35:02.020Z,12.25
2022-12-03T02:37:36.584Z,12.07
2022-12-03T02:40:09.149Z,12.68
2022-12-03T02:42:37.762Z,12.25
2022-12-03T02:45:07.228Z,11.88
2022-12-03T02:47:39.107Z,12.25
2022-12-03T02:50:08.441Z,11.38
2022-12-03T02:52:36.442Z,11.90
2022-12-03T02:55:06.824Z,11.48
2022-12-03T02:57:37.582Z,11.95
2022-12-03T03:00:07.001Z,12.70
2022-12-03T03:02:37.242Z,12.38
2022-12-03T03:05:07.352Z,12.27
2022-12-03T03:07:35.868Z,11.52
2022-12-03T03:10:07.020Z,11.13
2022-12-03T03:12:39.001Z,12.23
2022-12-03T03:15:09.227Z,11.40
2022-12-03T03:17:37.402Z,11.57
2022-12-03T03:20:06.875Z,11.85
2022-12-03T03:22:36.540Z,12.15
2022-12-03T03:25:07.074Z,12.00
2022-12-03T03:27:35.536Z,11.63
2022-12-03T03:30:04.575Z,11.88
2022-12-03T03:32:32.959Z,11.98
2022-12-03T03:35:00.975Z,11.90
2022-12-03T03:37:29.122Z,12.13
2022-12-03T03:39:56.668Z,10.90
2022-12-03T03:42:24.723Z,12.40
2022-12-03T03:44:52.538Z,11.73
2022-12-03T03:47:20.566Z,11.50
2022-12-03T03:49:50.568Z,12.13
2022-12-03T03:52:19.661Z,11.32
2022-12-03T03:54:47.317Z,10.85
2022-12-03T03:57:14.936Z,11.52
2022-12-03T03:59:42.455Z,11.13
2022-12-03T04:02:21.831Z,11.73
2022-12-03T04:04:49.814Z,10.90
2022-12-03T04:07:17.482Z,11.18
2022-12-03T04:09:44.996Z,11.02
2022-12-03T04:12:31.646Z,10.75
2022-12-03T04:14:59.539Z,11.70
2022-12-03T04:17:27.115Z,11.70
2022-12-03T04:19:54.326Z,11.68
2022-12-03T04:22:40.032Z,11.40
2022-12-03T04:28:13.057Z,10.85
2022-12-03T04:30:40.520Z,11.23
2022-12-03T04:33:27.628Z,11.50
2022-12-03T04:35:54.924Z,10.82
2022-12-03T04:38:22.742Z,10.05
2022-12-03T04:41:01.834Z,11.75
2022-12-03T04:43:34.620Z,10.85
2022-12-03T04:46:02.038Z,10.98
2022-12-03T04:48:29.616Z,9.98
2022-12-03T04:50:56.938Z,11.18
2022-12-03T04:53:44.739Z,10.73
2022-12-03T04:56:13.392Z,11.73
2022-12-03T04:58:41.018Z,10.68
2022-12-03T05:01:08.338Z,10.48
2022-12-03T05:03:36.003Z,11.80
2022-12-03T05:06:04.039Z,10.75
2022-12-03T05:08:31.610Z,10.48
2022-12-03T05:10:58.897Z,11.20
2022-12-03T05:13:26.556Z,10.90
2022-12-03T05:15:53.814Z,10.07
2022-12-03T05:18:21.362Z,10.65
2022-12-03T05:20:53.160Z,10.75
2022-12-03T05:23:22.055Z,10.40
2022-12-03T05:25:49.474Z,11.15
2022-12-03T05:28:17.109Z,10.20
2022-12-03T05:30:44.369Z,10.05
2022-12-03T05:33:12.054Z,11.07
2022-12-03T05:35:39.319Z,9.77
2022-12-03T05:38:06.902Z,10.45
2022-12-03T05:40:34.204Z,10.32
2022-12-03T05:43:01.814Z,10.73
2022-12-03T05:45:32.252Z,10.13
2022-12-03T05:48:00.646Z,10.65
2022-12-03T05:50:31.235Z,10.88
2022-12-03T05:52:59.817Z,10.20
2022-12-03T05:55:27.823Z,10.57
2022-12-03T05:57:55.977Z,10.32
2022-12-03T06:00:42.359Z,9.75
2022-12-03T06:03:11.015Z,10.23
2022-12-03T06:05:38.563Z,9.93
2022-12-03T06:08:06.738Z,10.90
2022-12-03T06:10:34.153Z,11.00
2022-12-03T06:13:03.132Z,10.70
2022-12-03T06:15:30.524Z,9.65
2022-12-03T06:17:58.120Z,10.60
2022-12-03T06:20:25.388Z,9.75
2022-12-03T06:22:53.049Z,10.68
2022-12-03T06:25:20.424Z,10.75
2022-12-03T06:27:47.948Z,9.95
2022-12-03T06:30:15.301Z,10.05
2022-12-03T06:32:42.884Z,10.20
2022-12-03T06:35:10.185Z,10.05
2022-12-03T06:37:37.704Z,10.07
2022-12-03T06:40:05.525Z,9.63
2022-12-03T06:42:33.085Z,10.35
2022-12-03T06:45:00.299Z,10.32
2022-12-03T06:47:27.824Z,10.38
2022-12-03T06:49:55.302Z,9.65
2022-12-03T06:52:22.992Z,9.88
2022-12-03T06:54:50.286Z,9.70
2022-12-03T06:57:18.295Z,10.45
2022-12-03T06:59:45.584Z,10.50
2022-12-03T07:02:13.200Z,10.55
2022-12-03T07:04:44.787Z,10.05
2022-12-03T07:07:14.571Z,10.00
2022-12-03T07:09:42.508Z,10.32
2022-12-03T07:12:10.347Z,10.10
2022-12-03T07:14:37.718Z,10.32
2022-12-03T07:17:05.252Z,9.60
2022-12-03T07:19:33.262Z,10.32
2022-12-03T07:22:01.100Z,10.18
2022-12-03T07:24:28.508Z,11.18
2022-12-03T07:26:56.170Z,11.15
2022-12-03T07:29:23.444Z,10.52
2022-12-03T07:31:51.083Z,10.23
2022-12-03T07:34:18.459Z,10.88
2022-12-03T07:36:46.056Z,9.52
2022-12-03T07:39:14.841Z,10.95
2022-12-03T07:41:42.457Z,9.77
2022-12-03T07:44:14.300Z,10.55
2022-12-03T07:46:42.681Z,10.02
2022-12-03T07:49:12.036Z,10.15
2022-12-03T07:51:39.744Z,10.27
2022-12-03T07:54:07.108Z,11.00
2022-12-03T07:56:34.824Z,11.07
2022-12-03T07:59:02.117Z,10.68
2022-12-03T08:01:29.734Z,10.65
2022-12-03T08:03:57.145Z,10.38
2022-12-03T08:06:24.763Z,11.00
2022-12-03T08:08:52.033Z,10.15
2022-12-03T08:11:19.960Z,11.32
2022-12-03T08:13:47.257Z,11.05
2022-12-03T08:16:20.645Z,10.55
2022-12-03T08:18:50.038Z,11.23
2022-12-03T08:21:21.177Z,11.75
2022-12-03T08:23:48.470Z,10.75
2022-12-03T08:26:22.318Z,10.38
2022-12-03T08:28:50.293Z,11.25
2022-12-03T08:31:32.697Z,11.38
2022-12-03T08:34:18.653Z,11.25
2022-12-03T08:36:47.757Z,12.25
2022-12-03T08:39:35.409Z,10.75
2022-12-03T08:42:24.437Z,11.50
2022-12-03T08:44:52.720Z,11.60
2022-12-03T08:47:22.961Z,11.63
2022-12-03T08:49:55.176Z,11.52
2022-12-03T08:52:26.730Z,11.63
2022-12-03T08:54:55.855Z,11.98
2022-12-03T08:57:32.234Z,11.85
2022-12-03T09:00:20.892Z,11.45
2022-12-03T09:02:54.282Z,11.50
2022-12-03T09:05:30.087Z,12.00
2022-12-03T09:07:57.886Z,11.98
2022-12-03T09:10:25.157Z,12.30
2022-12-03T09:12:52.764Z,13.35
2022-12-03T09:15:20.445Z,12.70
2022-12-03T09:17:48.876Z,12.93
2022-12-03T09:20:17.177Z,12.52
2022-12-03T09:22:44.713Z,12.93
2022-12-03T09:25:12.068Z,13.05
2022-12-03T09:27:39.791Z,13.07
2022-12-03T09:30:07.751Z,15.07
2022-12-03T09:32:35.326Z,12.95
2022-12-03T09:35:02.601Z,13.55
2022-12-03T09:37:30.366Z,13.48
2022-12-03T09:39:57.632Z,13.13
2022-12-03T09:42:26.151Z,13.40
2022-12-03T09:44:54.414Z,14.00
2022-12-03T09:47:22.913Z,15.18
2022-12-03T09:49:50.199Z,14.07
2022-12-03T09:52:25.880Z,14.55
2022-12-03T09:54:53.949Z,14.70
2022-12-03T09:57:22.294Z,15.73
2022-12-03T09:59:49.556Z,16.00
2022-12-03T10:02:25.024Z,15.45
2022-12-03T10:04:53.638Z,15.25
2022-12-03T10:07:22.273Z,15.65
2022-12-03T10:09:49.685Z,16.80
2022-12-03T10:12:24.515Z,16.95
2022-12-03T10:14:54.186Z,16.73
2022-12-03T10:17:22.167Z,16.02
2022-12-03T10:19:50.008Z,15.90
2022-12-03T10:22:17.710Z,17.05
2022-12-03T10:24:45.190Z,17.30
2022-12-03T10:27:29.134Z,16.05
2022-12-03T10:29:59.105Z,17.38
2022-12-03T10:32:39.533Z,17.35
2022-12-03T10:35:13.471Z,17.35
2022-12-03T10:37:56.371Z,17.00
2022-12-03T10:40:26.632Z,17.52
2022-12-03T10:43:13.804Z,17.88
2022-12-03T10:45:41.728Z,18.00
2022-12-03T10:48:16.368Z,17.70
2022-12-03T10:51:00.964Z,17.38
2022-12-03T10:53:30.779Z,16.98
2022-12-03T10:56:01.788Z,18.10
2022-12-03T10:58:40.557Z,17.58
2022-12-03T11:01:17.528Z,17.92
2022-12-03T11:03:45.851Z,16.95
2022-12-03T11:06:19.834Z,18.25
2022-12-03T11:08:56.820Z,17.95
2022-12-03T11:11:30.986Z,17.27
2022-12-03T11:14:00.505Z,17.17
2022-12-03T11:16:39.946Z,16.55
2022-12-03T11:19:18.722Z,17.25
2022-12-03T11:22:07.058Z,16.23
2022-12-03T11:24:37.147Z,17.08
2022-12-03T11:27:04.557Z,17.27
2022-12-03T11:29:49.571Z,16.58
2022-12-03T11:32:38.695Z,17.25
2022-12-03T11:35:24.620Z,17.27
2022-12-03T11:40:19.866Z,15.73
2022-12-03T11:42:48.274Z,16.00
2022-12-03T11:45:22.567Z,16.35
2022-12-03T11:47:58.835Z,16.25
2022-12-03T11:50:39.709Z,16.02
2022-12-03T11:53:07.730Z,16.55
2022-12-03T11:55:41.371Z,17.30
2022-12-03T11:58:23.273Z,16.38
2022-12-03T12:00:56.264Z,16.50
2022-12-03T12:03:32.903Z,16.83
2022-12-03T12:06:13.006Z,16.45
2022-12-03T12:08:49.601Z,17.05
2022-12-03T12:11:29.592Z,16.60
2022-12-03T12:14:06.096Z,16.73
2022-12-03T12:16:52.082Z,16.92
2022-12-03T12:19:41.406Z,17.15
2022-12-03T12:22:18.332Z,16.67
2022-12-03T12:25:00.629Z,17.00
2022-12-03T12:27:45.110Z,16.45
2022-12-03T12:30:12.450Z,16.85
2022-12-03T12:32:49.974Z,17.02
2022-12-03T12:35:23.022Z,16.83
2022-12-03T12:37:59.942Z,16.20
2022-12-03T12:40:30.320Z,15.90
2022-12-03T12:43:04.301Z,16.42
2022-12-03T12:45:41.339Z,17.42
2022-12-03T12:48:09.711Z,17.63
2022-12-03T12:50:38.123Z,16.80
2022-12-03T12:53:25.179Z,17.15
2022-12-03T12:56:15.490Z,16.88
2022-12-03T12:58:43.128Z,16.33
2022-12-03T13:01:24.907Z,17.63
2022-12-03T13:03:53.498Z,16.50
2022-12-03T13:06:30.052Z,17.10
2022-12-03T13:09:01.038Z,17.27
2022-12-03T13:11:37.157Z,17.90
2022-12-03T13:14:23.887Z,16.75
2022-12-03T13:16:53.144Z,17.70
2022-12-03T13:19:39.609Z,17.65
2022-12-03T13:22:22.512Z,16.92
2022-12-03T13:24:51.332Z,17.55
2022-12-03T13:27:19.531Z,17.67
2022-12-03T13:30:00.648Z,17.50
2022-12-03T13:32:30.957Z,17.08
2022-12-03T13:35:22.800Z,17.45
2022-12-03T13:37:50.111Z,16.52
2022-12-03T13:40:34.834Z,17.52
2022-12-03T13:43:14.915Z,17.35
2022-12-03T13:45:48.041Z,17.88
2022-12-03T13:48:34.479Z,17.80
2022-12-03T13:51:14.299Z,17.15
2022-12-03T13:53:42.560Z,17.23
2022-12-03T13:56:19.319Z,17.08
2022-12-03T13:58:46.805Z,17.52
2022-12-03T14:01:14.407Z,18.02
2022-12-03T14:03:41.789Z,18.88
2022-12-03T14:06:09.543Z,18.50
2022-12-03T14:08:37.421Z,18.05
2022-12-03T14:11:05.179Z,18.85
2022-12-03T14:13:32.632Z,17.92
2022-12-03T14:16:00.296Z,18.30
2022-12-03T14:18:27.843Z,18.67
2022-12-03T14:20:55.529Z,19.10
2022-12-03T14:23:23.119Z,18.33
2022-12-03T14:25:50.824Z,18.55
2022-12-03T14:28:18.144Z,19.58
2022-12-03T14:30:45.698Z,18.65
2022-12-03T14:33:12.965Z,18.27
2022-12-03T14:35:41.142Z,17.83
2022-12-03T14:38:08.599Z,17.90
2022-12-03T14:40:36.158Z,17.77
2022-12-03T14:43:03.473Z,18.73
2022-12-03T14:45:31.088Z,18.33
2022-12-03T14:47:58.361Z,19.30
2022-12-03T14:50:25.921Z,18.75
2022-12-03T14:52:53.368Z,18.45
2022-12-03T14:55:21.757Z,19.02
2022-12-03T14:57:49.598Z,18.27
2022-12-03T15:00:17.731Z,18.45
2022-12-03T15:02:45.897Z,18.05
2022-12-03T15:05:13.568Z,19.33
2022-12-03T15:07:41.027Z,18.52
2022-12-03T15:10:08.958Z,18.05
2022-12-03T15:12:37.474Z,18.25
2022-12-03T15:15:05.471Z,18.63
2022-12-03T15:17:32.824Z,18.80
2022-12-03T15:20:00.491Z,18.65
2022-12-03T15:22:27.841Z,18.13
2022-12-03T15:24:55.589Z,19.48
2022-12-03T15:27:23.371Z,18.48
2022-12-03T15:29:51.044Z,18.35
2022-12-03T15:32:18.646Z,18.58
2022-12-03T15:34:46.587Z,19.52
2022-12-03T15:37:14.945Z,18.52
2022-12-03T15:39:48.145Z,18.83
2022-12-03T15:42:16.044Z,18.63
2022-12-03T15:44:44.120Z,18.83
2022-12-03T15:47:11.414Z,18.52
2022-12-03T15:49:39.001Z,19.55
2022-12-03T15:52:07.744Z,19.45
2022-12-03T15:54:35.298Z,19.02
2022-12-03T15:57:02.713Z,19.85
2022-12-03T15:59:30.288Z,19.15
2022-12-03T16:01:57.966Z,19.83
2022-12-03T16:04:25.864Z,19.92
2022-12-03T16:06:53.095Z,19.10
2022-12-03T16:09:27.076Z,19.35
2022-12-03T16:11:55.270Z,18.98
2022-12-03T16:14:22.919Z,18.90
2022-12-03T16:16:50.319Z,18.92
2022-12-03T16:19:17.895Z,18.58
2022-12-03T16:21:45.157Z,19.08
2022-12-03T16:24:12.966Z,19.55
2022-12-03T16:26:40.648Z,19.45
2022-12-03T16:29:08.832Z,19.55
2022-12-03T16:31:36.146Z,18.88
2022-12-03T16:34:03.850Z,19.58
2022-12-03T16:36:31.442Z,17.85
2022-12-03T16:38:59.105Z,19.52
2022-12-03T16:41:26.578Z,18.60
2022-12-03T16:43:54.312Z,19.20
2022-12-03T16:46:26.157Z,18.67
2022-12-03T16:48:58.137Z,18.75
2022-12-03T16:51:27.014Z,18.55
2022-12-03T16:53:56.412Z,18.77
2022-12-03T16:56:23.796Z,19.02
2022-12-03T16:58:51.380Z,17.90
2022-12-03T17:01:18.905Z,18.60
2022-12-03T17:03:46.739Z,18.58
2022-12-03T17:06:15.379Z,18.98
2022-12-03T17:08:48.786Z,18.48
2022-12-03T17:11:17.288Z,18.80
2022-12-03T17:13:47.397Z,18.13
2022-12-03T17:16:14.811Z,18.00
2022-12-03T17:18:42.944Z,19.02
2022-12-03T17:21:10.316Z,18.73
2022-12-03T17:23:38.369Z,19.25
2022-12-03T17:26:05.640Z,18.65
2022-12-03T17:28:33.169Z,18.88
2022-12-03T17:31:00.530Z,19.40
2022-12-03T17:33:28.177Z,18.27
2022-12-03T17:35:55.407Z,19.42
2022-12-03T17:38:22.988Z,18.25
2022-12-03T17:40:50.289Z,18.20
2022-12-03T17:43:18.036Z,18.42
2022-12-03T17:45:46.127Z,18.50
2022-12-03T17:48:13.692Z,18.77
2022-12-03T17:50:41.198Z,17.75
2022-12-03T17:53:10.440Z,18.50
2022-12-03T17:55:44.265Z,17.75
2022-12-03T17:58:12.917Z,18.42
2022-12-03T18:00:40.200Z,18.15
2022-12-03T18:03:07.972Z,18.35
2022-12-03T18:05:35.563Z,18.67
2022-12-03T18:08:03.346Z,18.88
2022-12-03T18:10:31.202Z,18.60
2022-12-03T18:13:01.967Z,18.20
2022-12-03T18:15:30.395Z,18.17
2022-12-03T18:17:58.104Z,18.25
2022-12-03T18:20:25.361Z,19.35
2022-12-03T18:22:53.130Z,18.88
2022-12-03T18:25:20.513Z,19.48
2022-12-03T18:27:48.100Z,19.10
2022-12-03T18:30:15.459Z,18.15
2022-12-03T18:32:43.050Z,19.02
2022-12-03T18:35:10.329Z,18.40
2022-12-03T18:37:38.611Z,18.27
2022-12-03T18:40:12.695Z,18.60
2022-12-03T18:42:40.958Z,19.35
2022-12-03T18:45:11.788Z,18.80
2022-12-03T18:47:39.403Z,18.77
2022-12-03T18:50:07.576Z,19.15
2022-12-03T18:52:35.397Z,18.13
2022-12-03T18:55:04.897Z,18.90
2022-12-03T18:57:32.501Z,19.02
2022-12-03T18:59:59.915Z,18.35
2022-12-03T19:05:15.795Z,18.77
2022-12-03T19:07:43.530Z,18.40
2022-12-03T19:10:11.918Z,18.85
2022-12-03T19:12:39.608Z,18.48
2022-12-03T19:15:07.596Z,17.95
2022-12-03T19:17:35.440Z,18.38
2022-12-03T19:20:03.236Z,18.23
2022-12-03T19:22:31.432Z,17.75
2022-12-03T19:24:58.688Z,18.70
2022-12-03T19:27:29.701Z,18.42
2022-12-03T19:29:57.901Z,17.98
2022-12-03T19:32:25.613Z,18.35
2022-12-03T19:34:53.128Z,18.48
2022-12-03T19:37:21.266Z,17.48
2022-12-03T19:39:53.213Z,17.45
2022-12-03T19:42:21.771Z,18.95
2022-12-03T19:44:48.988Z,18.80
2022-12-03T19:47:16.615Z,17.98
2022-12-03T19:49:43.923Z,17.90
2022-12-03T19:52:11.598Z,17.80
2022-12-03T19:54:38.842Z,17.83
2022-12-03T19:57:06.501Z,17.83
2022-12-03T19:59:33.804Z,17.38
2022-12-03T20:02:01.672Z,18.10
2022-12-03T20:04:29.000Z,17.98
2022-12-03T20:06:56.718Z,18.63
2022-12-03T20:09:24.041Z,18.15
2022-12-03T20:11:51.826Z,17.65
2022-12-03T20:14:19.710Z,18.10
2022-12-03T20:16:47.917Z,17.70
2022-12-03T20:19:17.125Z,18.33
2022-12-03T20:21:44.929Z,18.67
2022-12-03T20:24:18.167Z,18.27
2022-12-03T20:26:46.252Z,18.10
2022-12-03T20:29:14.064Z,18.67
2022-12-03T20:31:41.675Z,18.63
2022-12-03T20:34:10.705Z,17.30
2022-12-03T20:36:39.294Z,17.90
2022-12-03T20:39:07.424Z,18.35
2022-12-03T20:41:36.544Z,18.52
2022-12-03T20:44:06.229Z,18.77
2022-12-03T20:46:33.855Z,19.23
2022-12-03T20:49:01.247Z,17.63
2022-12-03T20:51:30.918Z,17.90
2022-12-03T20:54:00.123Z,17.50
2022-12-03T20:56:33.947Z,18.77
2022-12-03T20:59:07.007Z,17.20
2022-12-03T21:01:35.925Z,17.83
2022-12-03T21:04:04.972Z,17.30
2022-12-03T21:06:35.722Z,18.10
2022-12-03T21:09:06.012Z,17.17
2022-12-03T21:11:35.779Z,18.45
2022-12-03T21:14:04.178Z,19.40
2022-12-03T21:17:06.443Z,17.90
2022-12-03T21:19:26.463Z,17.40
2022-12-03T21:21:54.108Z,18.08
2022-12-03T21:24:21.434Z,18.02
2022-12-03T21:26:50.182Z,17.73
2022-12-03T21:29:18.171Z,17.52
2022-12-03T21:31:46.549Z,17.30
2022-12-03T21:34:14.043Z,18.65
2022-12-03T21:36:41.823Z,18.48
2022-12-03T21:39:09.328Z,17.80
2022-12-03T21:41:36.981Z,17.90
2022-12-03T21:44:04.332Z,17.50
2022-12-03T21:47:12.621Z,17.45
2022-12-03T21:49:20.244Z,17.75
2022-12-03T21:51:48.330Z,18.35
2022-12-03T21:54:15.717Z,17.17
2022-12-03T21:56:43.340Z,18.02
2022-12-03T21:59:10.671Z,17.55
2022-12-03T22:01:41.688Z,17.50
2022-12-03T22:04:12.929Z,17.52
2022-12-03T22:06:40.515Z,17.13
2022-12-03T22:09:07.855Z,17.65
2022-12-03T22:11:35.528Z,18.08
2022-12-03T22:14:04.670Z,18.40
2022-12-03T22:16:32.515Z,16.73
2022-12-03T22:18:59.889Z,18.08
2022-12-03T22:21:27.647Z,18.13
2022-12-03T22:23:56.041Z,17.83
2022-12-03T22:26:23.595Z,17.90
2022-12-03T22:28:51.401Z,18.38
2022-12-03T22:31:19.094Z,17.33
2022-12-03T22:33:48.370Z,16.77
2022-12-03T22:36:21.122Z,16.92
2022-12-03T22:38:51.714Z,18.10
2022-12-03T22:41:19.876Z,17.55
2022-12-03T22:43:48.348Z,18.05
2022-12-03T22:46:16.345Z,18.67
2022-12-03T22:48:45.558Z,17.25
2022-12-03T22:51:19.739Z,17.40
2022-12-03T22:53:47.997Z,17.38
2022-12-03T22:56:17.161Z,18.13
2022-12-03T22:58:44.483Z,17.45
2022-12-03T23:01:24.531Z,18.40
2022-12-03T23:03:52.467Z,17.45
2022-12-03T23:06:20.909Z,17.30
2022-12-03T23:08:48.398Z,17.83
2022-12-03T23:11:16.895Z,17.55
2022-12-03T23:13:44.661Z,17.58
2022-12-03T23:16:18.467Z,18.38
2022-12-03T23:18:46.097Z,16.85
2022-12-03T23:21:29.543Z,17.63
2022-12-03T23:24:02.468Z,17.92
2022-12-03T23:26:30.405Z,18.23
2022-12-03T23:28:57.998Z,18.63
2022-12-03T23:31:29.499Z,18.05
2022-12-03T23:33:58.137Z,18.35
2022-12-03T23:36:28.328Z,19.15
2022-12-03T23:38:55.808Z,18.23
2022-12-03T23:41:23.854Z,17.63
2022-12-03T23:43:52.309Z,18.38
2022-12-03T23:46:22.821Z,17.90
2022-12-03T23:48:51.185Z,17.80
2022-12-03T23:51:22.436Z,17.75
2022-12-03T23:53:52.899Z,18.27
2022-12-03T23:56:23.730Z,17.45
2022-12-03T23:58:51.625Z,18.20
